Warning: Javascript must be enabled to use all the features on this page!


Page Loading - Please Wait...

* We've detected you're using a mobile device. Find our Next Generation Station Page here.
Click to hideNews Bulletins

Peak Streamflow for the Nation

USGS 0208758850 SWIFT CREEK NEAR MCCULLARS CROSSROADS, NC

Wake County, North Carolina
Hydrologic Unit Code 03020201
Latitude  35°41'37", Longitude  78°41'32" NAD83
Drainage area 35.8  square miles
Gage datum 250.4 feet above NAVD88
Output formats
Table
Graph
Tab-separated file
peakfq (watstore) format
Reselect output format
Water
Year
Date Gage
Height
(feet)
Stream-
flow
(cfs)
1989 1989-08-18 10.14 1,1706,C
1990 1990-03-29 10.09 1,1506,C
1991 1991-01-12 9.55 9176,C
1992 1992-06-27 9.00 7446,C
1993 1993-03-04 10.36 1,2306,C
1994 1994-03-02 9.83 1,0206,C
1995 1995-02-17 10.37 1,2406,C
1996 1996-09-06 14.15 6,7906,C
1997 1997-06-03 10.36 1,2606,C
1998 1998-03-19 11.45 1,9606,C
1999 1999-09-16 13.06 3,6406,C
2000 2000-01-10 9.77 9786,C
2001 2001-07-10 11.69 2,1606,C
2002 2002-04-01 10.01 1,1006,C
2003 2003-08-08 11.41 1,9406,C
2004 2004-08-14 9.66 9716,C
2005 2005-01-14 8.76 6896,C
2006 2006-06-14 13.50 4,6906,C
2007 2006-11-22 10.94 1,5806,C
2008 2008-09-06 11.06 1,6906,C
2009 2009-06-16 10.64 1,3806,C
2010 2010-09-30 10.22 1,0906,C
2011 2011-04-10 7.14 3496,C
2012 2012-05-06 6.76 3156,C
2013 2013-06-08 10.64 1,3306,C
2014 2014-05-16 10.98 1,8606,C
2015 2014-12-24 10.52 1,4906,C
2016 2016-07-17 10.69 1,6206,C
2017 2016-10-08 14.31 7,0606,9,C
2018 2018-08-20 9.85 1,0606,C
2019 2018-11-13 11.19 2,0506,C
2020 2020-02-07 11.47 2,3306,C
2021 2020-11-12 11.23 2,0906,C
?
  Peak Streamflow Qualification Codes.